Stolt Effort — ZCSP6 — position and weather

sailwx.info

Track history (hours):
 
Tides and Currents Weather Stations Pressure Air Temp Water Temp Dewpoint Dewpoint Depression Visibility Wind Speed Wind Dir Waves Ship Positions

Stolt Effort

Last reported at 2016-May-25 13:04 UTC. Time now 2016-May-27 06:34 UTC.
Position N 34°04' E 134°57'.

Length 176 m; draft 12.3 m.

Type: Ship (hazmat cat A). MMSI: 319445000.

Date/timePositionNaut miles runAvg speedWind from/ knotsBaromVisibWave heightAir tempDewpointWater temp
2016-May-25 13:04N 34°04' E 134°57'814.9
2016-May-25 12:34N 34°11' E 134°58'1110.8
2016-May-25 11:33N 34°22' E 135°01'1413.8
2016-May-25 10:33N 34°33' E 135°11'8 7.7
2016-May-25 09:28N 34°39' E 135°18'0 0.1
2016-May-25 08:28N 34°39' E 135°18'0 0.0
2016-May-25 07:28N 34°39' E 135°18'0 0.0
2016-May-25 06:22N 34°39' E 135°18'0 0.1
2016-May-25 05:28N 34°39' E 135°18'0 0.0
2016-May-25 04:28N 34°39' E 135°18'0 0.0
2016-May-25 03:28N 34°39' E 135°18'0 0.0
2016-May-25 02:28N 34°39' E 135°18'0 0.0
2016-May-25 01:16N 34°39' E 135°18'0 0.0
2016-May-25 00:28N 34°39' E 135°18'0 0.1
2016-May-24 23:28N 34°39' E 135°18'0 0.0
2016-May-24 22:28N 34°39' E 135°18'0 0.0
2016-May-24 21:28N 34°39' E 135°18'0 0.0
2016-May-24 20:28N 34°39' E 135°18'0 0.0
2016-May-24 19:10N 34°39' E 135°18'1 0.9
2016-May-24 18:33N 34°39' E 135°17'1312.9
2016-May-24 17:33N 34°28' E 135°10'1413.8
2016-May-24 16:33N 34°16' E 134°60'1413.8
2016-May-24 15:33N 34°03' E 134°59'153 7.7
2016-May-23 19:33N 34°13' E 138°04'1615.6
2016-May-23 18:32N 34°19' E 138°22'3315.4
2016-May-23 16:25N 34°31' E 138°59'1214.0
2016-May-23 15:33N 34°40' E 139°08'1515.0
2016-May-23 14:33N 34°53' E 139°19'1515.0
2016-May-23 13:33N 35°01' E 139°34'1514.6
2016-May-23 12:33N 35°11' E 139°46'1111.1
2016-May-23 11:33N 35°22' E 139°41'0 0.1
2016-May-23 10:32N 35°22' E 139°41'1 0.6
2016-May-23 09:33N 35°22' E 139°41'6 5.6
2016-May-23 08:33N 35°27' E 139°45'0 0.3
2016-May-23 07:31N 35°27' E 139°45'0 0.0
2016-May-23 06:31N 35°27' E 139°45'0 0.0
2016-May-23 05:31N 35°27' E 139°45'0 0.0
2016-May-23 04:31N 35°27' E 139°45'0 0.0
2016-May-23 03:31N 35°27' E 139°45'0 0.2
2016-May-23 02:31N 35°27' E 139°45'0 0.1
2016-May-23 01:31N 35°27' E 139°45'0 0.1
2016-May-23 00:31N 35°27' E 139°45'0 0.0
2016-May-22 23:31N 35°27' E 139°45'0 0.1
2016-May-22 22:33N 35°27' E 139°45'7 7.1
2016-May-22 21:33N 35°20' E 139°44'1110.8
2016-May-22 20:33N 35°09' E 139°46'7 7.2
2016-May-22 19:33N 35°02' E 139°44'1111.0
2016-May-22 18:33N 34°51' E 139°44'1515.3
2016-May-22 17:33N 34°53' E 140°03'1515.1
2016-May-22 16:33N 34°58' E 140°20'1414.2
2016-May-22 15:33N 35°04' E 140°36'1313.4
2016-May-22 14:33N 35°07' E 140°52'1313.0
2016-May-22 13:33N 35°12' E 141°06'1312.9
2016-May-22 12:33N 35°16' E 141°22'1413.2
2016-May-22 11:29N 35°20' E 141°38'1313.7
2016-May-22 10:32N 35°24' E 141°53'  
Track history (hours):
 
Tides and Currents Weather Stations Pressure Air Temp Water Temp Dewpoint Dewpoint Depression Visibility Wind Speed Wind Dir Waves Ship Positions

Stolt Effort

Last reported at 2016-May-25 13:04 UTC. Time now 2016-May-27 06:34 UTC.
Position N 34°04' E 134°57'.

Length 176 m; draft 12.3 m.

Type: Ship (hazmat cat A). MMSI: 319445000.

Date/timePositionNaut miles runAvg speedWind from/ knotsBaromVisibWave heightAir tempDewpointWater temp
2016-May-25 13:04N 34°04' E 134°57'814.9
2016-May-25 12:34N 34°11' E 134°58'1110.8
2016-May-25 11:33N 34°22' E 135°01'1413.8
2016-May-25 10:33N 34°33' E 135°11'8 7.7
2016-May-25 09:28N 34°39' E 135°18'0 0.1
2016-May-25 08:28N 34°39' E 135°18'0 0.0
2016-May-25 07:28N 34°39' E 135°18'0 0.0
2016-May-25 06:22N 34°39' E 135°18'0 0.1
2016-May-25 05:28N 34°39' E 135°18'0 0.0
2016-May-25 04:28N 34°39' E 135°18'0 0.0
2016-May-25 03:28N 34°39' E 135°18'0 0.0
2016-May-25 02:28N 34°39' E 135°18'0 0.0
2016-May-25 01:16N 34°39' E 135°18'0 0.0
2016-May-25 00:28N 34°39' E 135°18'0 0.1
2016-May-24 23:28N 34°39' E 135°18'0 0.0
2016-May-24 22:28N 34°39' E 135°18'0 0.0
2016-May-24 21:28N 34°39' E 135°18'0 0.0
2016-May-24 20:28N 34°39' E 135°18'0 0.0
2016-May-24 19:10N 34°39' E 135°18'1 0.9
2016-May-24 18:33N 34°39' E 135°17'1312.9
2016-May-24 17:33N 34°28' E 135°10'1413.8
2016-May-24 16:33N 34°16' E 134°60'1413.8
2016-May-24 15:33N 34°03' E 134°59'153 7.7
2016-May-23 19:33N 34°13' E 138°04'1615.6
2016-May-23 18:32N 34°19' E 138°22'3315.4
2016-May-23 16:25N 34°31' E 138°59'1214.0
2016-May-23 15:33N 34°40' E 139°08'1515.0
2016-May-23 14:33N 34°53' E 139°19'1515.0
2016-May-23 13:33N 35°01' E 139°34'1514.6
2016-May-23 12:33N 35°11' E 139°46'1111.1
2016-May-23 11:33N 35°22' E 139°41'0 0.1
2016-May-23 10:32N 35°22' E 139°41'1 0.6
2016-May-23 09:33N 35°22' E 139°41'6 5.6
2016-May-23 08:33N 35°27' E 139°45'0 0.3
2016-May-23 07:31N 35°27' E 139°45'0 0.0
2016-May-23 06:31N 35°27' E 139°45'0 0.0
2016-May-23 05:31N 35°27' E 139°45'0 0.0
2016-May-23 04:31N 35°27' E 139°45'0 0.0
2016-May-23 03:31N 35°27' E 139°45'0 0.2
2016-May-23 02:31N 35°27' E 139°45'0 0.1
2016-May-23 01:31N 35°27' E 139°45'0 0.1
2016-May-23 00:31N 35°27' E 139°45'0 0.0
2016-May-22 23:31N 35°27' E 139°45'0 0.1
2016-May-22 22:33N 35°27' E 139°45'7 7.1
2016-May-22 21:33N 35°20' E 139°44'1110.8
2016-May-22 20:33N 35°09' E 139°46'7 7.2
2016-May-22 19:33N 35°02' E 139°44'1111.0
2016-May-22 18:33N 34°51' E 139°44'1515.3
2016-May-22 17:33N 34°53' E 140°03'1515.1
2016-May-22 16:33N 34°58' E 140°20'1414.2
2016-May-22 15:33N 35°04' E 140°36'1313.4
2016-May-22 14:33N 35°07' E 140°52'1313.0
2016-May-22 13:33N 35°12' E 141°06'1312.9
2016-May-22 12:33N 35°16' E 141°22'1413.2
2016-May-22 11:29N 35°20' E 141°38'1313.7
2016-May-22 10:32N 35°24' E 141°53'  

Dump ship's entire track history